sensor_id;sensor_type;location;lat;lon;timestamp;temperature;humidity
38333;DHT22;25748;46.670;14.272;2023-02-26T00:02:24;1.50;65.90
38333;DHT22;25748;46.670;14.272;2023-02-26T00:04:49;1.50;65.90
38333;DHT22;25748;46.670;14.272;2023-02-26T00:07:15;1.50;66.00
38333;DHT22;25748;46.670;14.272;2023-02-26T00:09:41;1.50;66.10
38333;DHT22;25748;46.670;14.272;2023-02-26T00:12:09;1.50;66.20
38333;DHT22;25748;46.670;14.272;2023-02-26T00:14:35;1.50;66.30
38333;DHT22;25748;46.670;14.272;2023-02-26T00:19:59;1.60;66.50
38333;DHT22;25748;46.670;14.272;2023-02-26T00:22:25;1.60;66.30
38333;DHT22;25748;46.670;14.272;2023-02-26T00:24:51;1.60;66.10
38333;DHT22;25748;46.670;14.272;2023-02-26T00:27:17;1.60;66.10
38333;DHT22;25748;46.670;14.272;2023-02-26T00:29:43;1.60;66.10
38333;DHT22;25748;46.670;14.272;2023-02-26T00:32:10;1.60;66.20
38333;DHT22;25748;46.670;14.272;2023-02-26T00:34:36;1.50;66.10
38333;DHT22;25748;46.670;14.272;2023-02-26T00:39:50;1.60;66.20
38333;DHT22;25748;46.670;14.272;2023-02-26T00:42:19;1.50;66.00
38333;DHT22;25748;46.670;14.272;2023-02-26T00:44:45;1.50;66.20
38333;DHT22;25748;46.670;14.272;2023-02-26T00:50:19;1.50;66.30
38333;DHT22;25748;46.670;14.272;2023-02-26T00:55:28;1.50;66.40
38333;DHT22;25748;46.670;14.272;2023-02-26T00:57:54;1.50;66.60
38333;DHT22;25748;46.670;14.272;2023-02-26T01:00:20;1.50;66.50
38333;DHT22;25748;46.670;14.272;2023-02-26T01:02:46;1.50;66.60
38333;DHT22;25748;46.670;14.272;2023-02-26T01:05:12;1.50;66.40
38333;DHT22;25748;46.670;14.272;2023-02-26T01:08:14;1.50;66.30
38333;DHT22;25748;46.670;14.272;2023-02-26T01:10:42;1.50;66.40
38333;DHT22;25748;46.670;14.272;2023-02-26T01:13:08;1.40;66.10
38333;DHT22;25748;46.670;14.272;2023-02-26T01:15:33;1.40;66.50
38333;DHT22;25748;46.670;14.272;2023-02-26T01:21:23;1.40;66.70
38333;DHT22;25748;46.670;14.272;2023-02-26T01:23:24;1.50;66.60
38333;DHT22;25748;46.670;14.272;2023-02-26T01:26:04;1.50;66.70
38333;DHT22;25748;46.670;14.272;2023-02-26T01:28:31;1.50;66.40
38333;DHT22;25748;46.670;14.272;2023-02-26T01:31:00;1.40;66.40
38333;DHT22;25748;46.670;14.272;2023-02-26T01:33:46;1.40;66.50
38333;DHT22;25748;46.670;14.272;2023-02-26T01:36:21;1.50;66.80
38333;DHT22;25748;46.670;14.272;2023-02-26T01:38:52;1.40;66.50
38333;DHT22;25748;46.670;14.272;2023-02-26T01:49:31;1.40;66.80
38333;DHT22;25748;46.670;14.272;2023-02-26T01:52:00;1.40;66.80
38333;DHT22;25748;46.670;14.272;2023-02-26T01:54:36;1.40;66.80
38333;DHT22;25748;46.670;14.272;2023-02-26T01:57:09;1.30;66.90
38333;DHT22;25748;46.670;14.272;2023-02-26T01:59:38;1.40;67.20
38333;DHT22;25748;46.670;14.272;2023-02-26T02:02:07;1.40;67.20
38333;DHT22;25748;46.670;14.272;2023-02-26T02:04:33;1.40;67.20
38333;DHT22;25748;46.670;14.272;2023-02-26T02:06:59;1.40;67.30
38333;DHT22;25748;46.670;14.272;2023-02-26T02:09:25;1.40;67.20
38333;DHT22;25748;46.670;14.272;2023-02-26T02:14:48;1.40;67.40
38333;DHT22;25748;46.670;14.272;2023-02-26T02:19:57;1.40;67.20
38333;DHT22;25748;46.670;14.272;2023-02-26T02:28:45;1.40;67.30
38333;DHT22;25748;46.670;14.272;2023-02-26T02:31:21;1.30;67.30
38333;DHT22;25748;46.670;14.272;2023-02-26T02:33:53;1.40;67.50
38333;DHT22;25748;46.670;14.272;2023-02-26T02:36:33;1.40;67.50
38333;DHT22;25748;46.670;14.272;2023-02-26T02:39:05;1.40;67.70
38333;DHT22;25748;46.670;14.272;2023-02-26T02:41:59;1.40;67.80
38333;DHT22;25748;46.670;14.272;2023-02-26T02:44:29;1.40;67.90
38333;DHT22;25748;46.670;14.272;2023-02-26T02:46:57;1.40;67.90
38333;DHT22;25748;46.670;14.272;2023-02-26T02:49:34;1.40;67.90
38333;DHT22;25748;46.670;14.272;2023-02-26T02:52:20;1.40;68.10
38333;DHT22;25748;46.670;14.272;2023-02-26T02:55:01;1.40;68.10
38333;DHT22;25748;46.670;14.272;2023-02-26T02:57:36;1.40;68.10
38333;DHT22;25748;46.670;14.272;2023-02-26T03:00:07;1.40;68.10
38333;DHT22;25748;46.670;14.272;2023-02-26T03:03:23;1.40;68.20
38333;DHT22;25748;46.670;14.272;2023-02-26T03:05:20;1.40;68.40
38333;DHT22;25748;46.670;14.272;2023-02-26T03:07:54;1.40;68.40
38333;DHT22;25748;46.670;14.272;2023-02-26T03:10:21;1.40;68.40
38333;DHT22;25748;46.670;14.272;2023-02-26T03:12:47;1.40;68.60
38333;DHT22;25748;46.670;14.272;2023-02-26T03:15:14;1.50;68.70
38333;DHT22;25748;46.670;14.272;2023-02-26T03:23:10;1.40;68.70
38333;DHT22;25748;46.670;14.272;2023-02-26T03:28:44;1.50;68.90
38333;DHT22;25748;46.670;14.272;2023-02-26T03:31:25;1.40;68.70
38333;DHT22;25748;46.670;14.272;2023-02-26T03:34:14;1.50;68.90
38333;DHT22;25748;46.670;14.272;2023-02-26T03:36:50;1.40;68.70
38333;DHT22;25748;46.670;14.272;2023-02-26T03:39:26;1.40;68.70
38333;DHT22;25748;46.670;14.272;2023-02-26T03:44:36;1.30;68.50
38333;DHT22;25748;46.670;14.272;2023-02-26T03:47:07;1.40;68.90
38333;DHT22;25748;46.670;14.272;2023-02-26T03:49:40;1.40;68.90
38333;DHT22;25748;46.670;14.272;2023-02-26T03:52:07;1.30;68.20
38333;DHT22;25748;46.670;14.272;2023-02-26T03:54:56;1.20;68.40
38333;DHT22;25748;46.670;14.272;2023-02-26T03:57:23;1.20;68.60
38333;DHT22;25748;46.670;14.272;2023-02-26T03:59:49;1.20;69.00
38333;DHT22;25748;46.670;14.272;2023-02-26T04:02:28;1.20;68.70
38333;DHT22;25748;46.670;14.272;2023-02-26T04:04:59;1.20;69.40
38333;DHT22;25748;46.670;14.272;2023-02-26T04:07:26;1.10;69.10
38333;DHT22;25748;46.670;14.272;2023-02-26T04:09:52;1.10;69.00
38333;DHT22;25748;46.670;14.272;2023-02-26T04:12:26;1.20;69.30
38333;DHT22;25748;46.670;14.272;2023-02-26T04:14:52;1.20;69.40
38333;DHT22;25748;46.670;14.272;2023-02-26T04:17:17;1.20;69.30
38333;DHT22;25748;46.670;14.272;2023-02-26T04:19:43;1.20;69.10
38333;DHT22;25748;46.670;14.272;2023-02-26T04:22:09;1.20;69.00
38333;DHT22;25748;46.670;14.272;2023-02-26T04:24:35;1.20;68.90
38333;DHT22;25748;46.670;14.272;2023-02-26T04:27:01;1.20;68.80
38333;DHT22;25748;46.670;14.272;2023-02-26T04:29:26;1.10;68.50
38333;DHT22;25748;46.670;14.272;2023-02-26T04:31:52;1.00;68.00
38333;DHT22;25748;46.670;14.272;2023-02-26T04:34:18;1.00;68.10
38333;DHT22;25748;46.670;14.272;2023-02-26T04:36:44;1.00;68.10
38333;DHT22;25748;46.670;14.272;2023-02-26T04:39:10;1.00;68.40
38333;DHT22;25748;46.670;14.272;2023-02-26T04:41:37;1.00;68.50
38333;DHT22;25748;46.670;14.272;2023-02-26T04:44:04;1.00;68.50
38333;DHT22;25748;46.670;14.272;2023-02-26T04:46:30;0.90;68.30
38333;DHT22;25748;46.670;14.272;2023-02-26T04:48:56;1.00;68.60
38333;DHT22;25748;46.670;14.272;2023-02-26T04:51:22;1.00;68.80
38333;DHT22;25748;46.670;14.272;2023-02-26T04:53:47;1.00;68.90
38333;DHT22;25748;46.670;14.272;2023-02-26T04:56:13;1.00;68.60
38333;DHT22;25748;46.670;14.272;2023-02-26T04:58:39;0.90;68.40
38333;DHT22;25748;46.670;14.272;2023-02-26T05:01:05;0.90;68.30
38333;DHT22;25748;46.670;14.272;2023-02-26T05:03:30;0.90;68.70
38333;DHT22;25748;46.670;14.272;2023-02-26T05:05:56;0.90;68.80
38333;DHT22;25748;46.670;14.272;2023-02-26T05:08:22;0.90;69.00
38333;DHT22;25748;46.670;14.272;2023-02-26T05:10:49;1.00;68.90
38333;DHT22;25748;46.670;14.272;2023-02-26T05:13:15;1.00;69.10
38333;DHT22;25748;46.670;14.272;2023-02-26T05:15:41;1.00;69.10
38333;DHT22;25748;46.670;14.272;2023-02-26T05:18:06;1.00;69.10
38333;DHT22;25748;46.670;14.272;2023-02-26T05:20:32;1.00;69.00
38333;DHT22;25748;46.670;14.272;2023-02-26T05:22:58;0.80;67.60
38333;DHT22;25748;46.670;14.272;2023-02-26T05:25:24;0.80;67.50
38333;DHT22;25748;46.670;14.272;2023-02-26T05:27:50;0.80;67.70
38333;DHT22;25748;46.670;14.272;2023-02-26T05:30:16;0.80;68.10
38333;DHT22;25748;46.670;14.272;2023-02-26T05:32:42;0.80;67.80
38333;DHT22;25748;46.670;14.272;2023-02-26T05:35:08;0.80;67.80
38333;DHT22;25748;46.670;14.272;2023-02-26T05:37:35;0.80;68.00
38333;DHT22;25748;46.670;14.272;2023-02-26T05:40:00;0.80;67.60
38333;DHT22;25748;46.670;14.272;2023-02-26T05:42:26;0.80;67.60
38333;DHT22;25748;46.670;14.272;2023-02-26T05:44:52;0.80;67.50
38333;DHT22;25748;46.670;14.272;2023-02-26T05:47:17;0.80;67.30
38333;DHT22;25748;46.670;14.272;2023-02-26T05:49:43;0.70;67.20
38333;DHT22;25748;46.670;14.272;2023-02-26T05:52:09;0.70;67.00
38333;DHT22;25748;46.670;14.272;2023-02-26T05:54:34;0.70;67.00
38333;DHT22;25748;46.670;14.272;2023-02-26T05:57:00;0.70;66.90
38333;DHT22;25748;46.670;14.272;2023-02-26T05:59:26;0.60;67.10
38333;DHT22;25748;46.670;14.272;2023-02-26T06:01:51;0.60;67.30
38333;DHT22;25748;46.670;14.272;2023-02-26T06:04:17;0.60;66.90
38333;DHT22;25748;46.670;14.272;2023-02-26T06:06:43;0.60;67.10
38333;DHT22;25748;46.670;14.272;2023-02-26T06:09:08;0.60;67.10
38333;DHT22;25748;46.670;14.272;2023-02-26T06:11:34;0.60;67.10
38333;DHT22;25748;46.670;14.272;2023-02-26T06:14:00;0.60;67.30
38333;DHT22;25748;46.670;14.272;2023-02-26T06:16:26;0.50;67.00
38333;DHT22;25748;46.670;14.272;2023-02-26T06:18:51;0.50;66.90
38333;DHT22;25748;46.670;14.272;2023-02-26T06:21:17;0.40;66.50
38333;DHT22;25748;46.670;14.272;2023-02-26T06:23:43;0.40;66.60
38333;DHT22;25748;46.670;14.272;2023-02-26T06:26:09;0.40;66.40
38333;DHT22;25748;46.670;14.272;2023-02-26T06:28:35;0.40;66.70
38333;DHT22;25748;46.670;14.272;2023-02-26T06:31:01;0.30;66.40
38333;DHT22;25748;46.670;14.272;2023-02-26T06:33:26;0.30;66.60
38333;DHT22;25748;46.670;14.272;2023-02-26T06:35:52;0.30;66.60
38333;DHT22;25748;46.670;14.272;2023-02-26T06:38:18;0.30;66.80
38333;DHT22;25748;46.670;14.272;2023-02-26T06:40:45;0.30;67.00
38333;DHT22;25748;46.670;14.272;2023-02-26T06:43:11;0.30;67.10
38333;DHT22;25748;46.670;14.272;2023-02-26T06:45:36;0.40;67.40
38333;DHT22;25748;46.670;14.272;2023-02-26T06:48:03;0.40;67.60
38333;DHT22;25748;46.670;14.272;2023-02-26T06:50:28;0.40;67.80
38333;DHT22;25748;46.670;14.272;2023-02-26T06:52:54;0.40;67.70
38333;DHT22;25748;46.670;14.272;2023-02-26T06:55:20;0.50;67.80
38333;DHT22;25748;46.670;14.272;2023-02-26T06:57:55;0.50;68.10
38333;DHT22;25748;46.670;14.272;2023-02-26T07:00:22;0.50;68.10
38333;DHT22;25748;46.670;14.272;2023-02-26T07:02:49;0.60;68.40
38333;DHT22;25748;46.670;14.272;2023-02-26T07:05:15;0.60;68.60
38333;DHT22;25748;46.670;14.272;2023-02-26T07:07:40;0.60;68.00
38333;DHT22;25748;46.670;14.272;2023-02-26T07:10:07;0.60;67.90
38333;DHT22;25748;46.670;14.272;2023-02-26T07:12:33;0.60;68.30
38333;DHT22;25748;46.670;14.272;2023-02-26T07:14:59;0.70;68.50
38333;DHT22;25748;46.670;14.272;2023-02-26T07:17:24;0.70;68.50
38333;DHT22;25748;46.670;14.272;2023-02-26T07:19:51;0.70;68.70
38333;DHT22;25748;46.670;14.272;2023-02-26T07:22:18;0.80;68.90
38333;DHT22;25748;46.670;14.272;2023-02-26T07:24:44;0.80;68.90
38333;DHT22;25748;46.670;14.272;2023-02-26T07:27:10;0.80;69.00
38333;DHT22;25748;46.670;14.272;2023-02-26T07:29:37;0.90;69.30
38333;DHT22;25748;46.670;14.272;2023-02-26T07:32:03;0.90;69.30
38333;DHT22;25748;46.670;14.272;2023-02-26T07:34:29;1.00;69.30
38333;DHT22;25748;46.670;14.272;2023-02-26T07:36:54;1.00;69.10
38333;DHT22;25748;46.670;14.272;2023-02-26T07:39:20;1.00;69.10
38333;DHT22;25748;46.670;14.272;2023-02-26T07:41:46;1.10;68.90
38333;DHT22;25748;46.670;14.272;2023-02-26T07:44:11;1.10;69.00
38333;DHT22;25748;46.670;14.272;2023-02-26T07:46:37;1.10;69.10
38333;DHT22;25748;46.670;14.272;2023-02-26T07:49:03;1.20;69.00
38333;DHT22;25748;46.670;14.272;2023-02-26T07:51:29;1.20;69.10
38333;DHT22;25748;46.670;14.272;2023-02-26T07:53:54;1.30;69.30
38333;DHT22;25748;46.670;14.272;2023-02-26T07:56:20;1.40;69.40
38333;DHT22;25748;46.670;14.272;2023-02-26T07:58:46;1.40;69.50
38333;DHT22;25748;46.670;14.272;2023-02-26T08:01:11;1.50;69.50
38333;DHT22;25748;46.670;14.272;2023-02-26T08:03:37;1.60;69.50
38333;DHT22;25748;46.670;14.272;2023-02-26T08:06:03;1.70;69.30
38333;DHT22;25748;46.670;14.272;2023-02-26T08:08:29;1.70;69.20
38333;DHT22;25748;46.670;14.272;2023-02-26T08:10:55;1.80;68.80
38333;DHT22;25748;46.670;14.272;2023-02-26T08:13:23;1.80;68.30
38333;DHT22;25748;46.670;14.272;2023-02-26T08:15:48;1.90;68.40
38333;DHT22;25748;46.670;14.272;2023-02-26T08:18:14;1.90;68.40
38333;DHT22;25748;46.670;14.272;2023-02-26T08:20:40;2.00;68.10
38333;DHT22;25748;46.670;14.272;2023-02-26T08:23:05;2.00;68.10
38333;DHT22;25748;46.670;14.272;2023-02-26T08:25:31;2.10;68.20
38333;DHT22;25748;46.670;14.272;2023-02-26T08:27:57;2.10;68.00
38333;DHT22;25748;46.670;14.272;2023-02-26T08:30:23;2.10;67.50
38333;DHT22;25748;46.670;14.272;2023-02-26T08:32:49;2.20;67.70
38333;DHT22;25748;46.670;14.272;2023-02-26T08:35:15;2.20;67.50
38333;DHT22;25748;46.670;14.272;2023-02-26T08:37:41;2.20;67.30
38333;DHT22;25748;46.670;14.272;2023-02-26T08:40:08;2.30;67.40
38333;DHT22;25748;46.670;14.272;2023-02-26T08:42:34;2.30;67.20
38333;DHT22;25748;46.670;14.272;2023-02-26T08:45:00;2.40;67.20
38333;DHT22;25748;46.670;14.272;2023-02-26T08:47:33;2.40;67.20
38333;DHT22;25748;46.670;14.272;2023-02-26T08:50:03;2.40;66.60
38333;DHT22;25748;46.670;14.272;2023-02-26T08:52:29;2.50;66.20
38333;DHT22;25748;46.670;14.272;2023-02-26T08:54:55;2.60;65.70
38333;DHT22;25748;46.670;14.272;2023-02-26T08:57:20;2.60;64.70
38333;DHT22;25748;46.670;14.272;2023-02-26T08:59:46;2.60;64.60
38333;DHT22;25748;46.670;14.272;2023-02-26T09:02:12;2.60;65.00
38333;DHT22;25748;46.670;14.272;2023-02-26T09:04:38;2.70;64.80
38333;DHT22;25748;46.670;14.272;2023-02-26T09:07:04;2.70;64.60
38333;DHT22;25748;46.670;14.272;2023-02-26T09:09:30;2.80;64.60
38333;DHT22;25748;46.670;14.272;2023-02-26T09:11:55;2.80;64.00
38333;DHT22;25748;46.670;14.272;2023-02-26T09:14:21;2.80;64.00
38333;DHT22;25748;46.670;14.272;2023-02-26T09:16:47;2.80;64.00
38333;DHT22;25748;46.670;14.272;2023-02-26T09:19:13;2.80;63.70
38333;DHT22;25748;46.670;14.272;2023-02-26T09:21:38;2.90;64.00
38333;DHT22;25748;46.670;14.272;2023-02-26T09:24:04;2.80;61.90
38333;DHT22;25748;46.670;14.272;2023-02-26T09:26:30;2.80;62.10
38333;DHT22;25748;46.670;14.272;2023-02-26T09:28:55;2.80;61.80
38333;DHT22;25748;46.670;14.272;2023-02-26T09:31:21;2.90;62.40
38333;DHT22;25748;46.670;14.272;2023-02-26T09:33:47;3.00;62.30
38333;DHT22;25748;46.670;14.272;2023-02-26T09:36:12;3.10;62.60
38333;DHT22;25748;46.670;14.272;2023-02-26T09:38:38;3.10;61.00
38333;DHT22;25748;46.670;14.272;2023-02-26T09:41:07;3.20;62.50
38333;DHT22;25748;46.670;14.272;2023-02-26T09:52:10;3.30;61.10
38333;DHT22;25748;46.670;14.272;2023-02-26T09:54:50;3.40;60.50
38333;DHT22;25748;46.670;14.272;2023-02-26T09:57:30;3.50;60.70
38333;DHT22;25748;46.670;14.272;2023-02-26T09:59:57;3.60;60.10
38333;DHT22;25748;46.670;14.272;2023-02-26T10:02:31;3.70;59.60
38333;DHT22;25748;46.670;14.272;2023-02-26T10:05:01;3.70;59.30
38333;DHT22;25748;46.670;14.272;2023-02-26T10:08:03;3.80;59.10
38333;DHT22;25748;46.670;14.272;2023-02-26T10:13:36;3.70;58.30
38333;DHT22;25748;46.670;14.272;2023-02-26T10:16:10;3.70;57.50
38333;DHT22;25748;46.670;14.272;2023-02-26T10:18:43;3.70;57.60
38333;DHT22;25748;46.670;14.272;2023-02-26T10:21:19;3.70;57.70
38333;DHT22;25748;46.670;14.272;2023-02-26T10:23:54;3.60;57.30
38333;DHT22;25748;46.670;14.272;2023-02-26T10:26:36;3.60;57.10
38333;DHT22;25748;46.670;14.272;2023-02-26T10:29:27;3.60;56.50
38333;DHT22;25748;46.670;14.272;2023-02-26T10:32:10;3.60;56.40
38333;DHT22;25748;46.670;14.272;2023-02-26T10:34:50;3.60;56.70
38333;DHT22;25748;46.670;14.272;2023-02-26T10:37:21;3.60;56.90
38333;DHT22;25748;46.670;14.272;2023-02-26T10:40:14;3.60;55.80
38333;DHT22;25748;46.670;14.272;2023-02-26T10:43:02;3.60;56.10
38333;DHT22;25748;46.670;14.272;2023-02-26T10:51:35;3.60;56.40
38333;DHT22;25748;46.670;14.272;2023-02-26T10:54:22;3.60;56.80
38333;DHT22;25748;46.670;14.272;2023-02-26T10:56:50;3.60;56.40
38333;DHT22;25748;46.670;14.272;2023-02-26T10:59:15;3.60;56.30
38333;DHT22;25748;46.670;14.272;2023-02-26T11:01:41;3.60;56.30
38333;DHT22;25748;46.670;14.272;2023-02-26T11:04:15;3.60;56.10
38333;DHT22;25748;46.670;14.272;2023-02-26T11:06:58;3.60;56.20
38333;DHT22;25748;46.670;14.272;2023-02-26T11:12:15;3.70;55.30
38333;DHT22;25748;46.670;14.272;2023-02-26T11:14:42;3.60;54.80
38333;DHT22;25748;46.670;14.272;2023-02-26T11:17:22;3.60;54.90
38333;DHT22;25748;46.670;14.272;2023-02-26T11:19:57;3.60;54.40
38333;DHT22;25748;46.670;14.272;2023-02-26T11:22:28;3.60;55.00
38333;DHT22;25748;46.670;14.272;2023-02-26T11:24:57;3.60;55.20
38333;DHT22;25748;46.670;14.272;2023-02-26T11:27:30;3.60;54.70
38333;DHT22;25748;46.670;14.272;2023-02-26T11:29:59;3.70;55.20
38333;DHT22;25748;46.670;14.272;2023-02-26T11:32:33;3.50;54.10
38333;DHT22;25748;46.670;14.272;2023-02-26T11:35:00;3.50;54.30
38333;DHT22;25748;46.670;14.272;2023-02-26T11:37:30;3.60;54.40
38333;DHT22;25748;46.670;14.272;2023-02-26T11:40:04;3.60;53.80
38333;DHT22;25748;46.670;14.272;2023-02-26T11:42:36;3.50;53.60
38333;DHT22;25748;46.670;14.272;2023-02-26T11:45:04;3.60;53.80
38333;DHT22;25748;46.670;14.272;2023-02-26T11:47:32;3.50;53.70
38333;DHT22;25748;46.670;14.272;2023-02-26T11:50:09;3.50;53.20
38333;DHT22;25748;46.670;14.272;2023-02-26T11:52:40;3.50;53.10
38333;DHT22;25748;46.670;14.272;2023-02-26T11:55:38;3.40;53.40
38333;DHT22;25748;46.670;14.272;2023-02-26T11:58:22;3.50;53.80
38333;DHT22;25748;46.670;14.272;2023-02-26T12:00:51;3.50;54.10
38333;DHT22;25748;46.670;14.272;2023-02-26T12:03:20;3.50;54.00
38333;DHT22;25748;46.670;14.272;2023-02-26T12:05:47;3.50;54.20
38333;DHT22;25748;46.670;14.272;2023-02-26T12:08:19;3.50;54.30
38333;DHT22;25748;46.670;14.272;2023-02-26T12:11:10;3.60;54.30
38333;DHT22;25748;46.670;14.272;2023-02-26T12:36:48;3.60;53.70
38333;DHT22;25748;46.670;14.272;2023-02-26T12:39:36;3.60;53.70
38333;DHT22;25748;46.670;14.272;2023-02-26T12:45:23;3.60;53.30
38333;DHT22;25748;46.670;14.272;2023-02-26T12:48:30;3.60;53.30
38333;DHT22;25748;46.670;14.272;2023-02-26T13:06:39;3.70;52.90
38333;DHT22;25748;46.670;14.272;2023-02-26T13:09:33;3.70;52.90
38333;DHT22;25748;46.670;14.272;2023-02-26T13:17:47;3.60;52.90
38333;DHT22;25748;46.670;14.272;2023-02-26T13:20:24;3.60;52.30
38333;DHT22;25748;46.670;14.272;2023-02-26T13:22:58;3.60;52.30
38333;DHT22;25748;46.670;14.272;2023-02-26T13:25:58;3.50;52.30
38333;DHT22;25748;46.670;14.272;2023-02-26T13:28:55;3.50;52.30
38333;DHT22;25748;46.670;14.272;2023-02-26T13:31:37;3.50;52.20
38333;DHT22;25748;46.670;14.272;2023-02-26T13:34:11;3.40;52.20
38333;DHT22;25748;46.670;14.272;2023-02-26T13:36:38;3.40;52.30
38333;DHT22;25748;46.670;14.272;2023-02-26T13:48:12;3.30;52.00
38333;DHT22;25748;46.670;14.272;2023-02-26T13:53:41;3.20;52.10
38333;DHT22;25748;46.670;14.272;2023-02-26T14:04:25;3.10;52.50
38333;DHT22;25748;46.670;14.272;2023-02-26T14:06:59;3.20;52.10
38333;DHT22;25748;46.670;14.272;2023-02-26T14:09:36;3.20;51.90
38333;DHT22;25748;46.670;14.272;2023-02-26T14:17:29;3.20;52.00
38333;DHT22;25748;46.670;14.272;2023-02-26T14:27:37;3.10;51.00
38333;DHT22;25748;46.670;14.272;2023-02-26T14:35:22;3.10;50.30
38333;DHT22;25748;46.670;14.272;2023-02-26T14:40:25;3.00;50.20
38333;DHT22;25748;46.670;14.272;2023-02-26T14:42:57;3.00;50.20
38333;DHT22;25748;46.670;14.272;2023-02-26T14:45:31;3.00;50.00
38333;DHT22;25748;46.670;14.272;2023-02-26T14:47:58;2.90;49.90
38333;DHT22;25748;46.670;14.272;2023-02-26T14:50:31;2.90;50.10
38333;DHT22;25748;46.670;14.272;2023-02-26T15:01:47;2.80;50.60
38333;DHT22;25748;46.670;14.272;2023-02-26T15:04:36;2.80;50.80
38333;DHT22;25748;46.670;14.272;2023-02-26T15:10:09;2.70;51.10
38333;DHT22;25748;46.670;14.272;2023-02-26T15:15:26;2.70;50.70
38333;DHT22;25748;46.670;14.272;2023-02-26T15:18:07;2.70;50.20
38333;DHT22;25748;46.670;14.272;2023-02-26T15:21:19;2.60;50.20
38333;DHT22;25748;46.670;14.272;2023-02-26T15:23:37;2.60;50.10
38333;DHT22;25748;46.670;14.272;2023-02-26T15:26:06;2.60;49.90
38333;DHT22;25748;46.670;14.272;2023-02-26T15:28:38;2.50;49.80
38333;DHT22;25748;46.670;14.272;2023-02-26T15:31:06;2.50;50.20
38333;DHT22;25748;46.670;14.272;2023-02-26T15:33:33;2.50;50.10
38333;DHT22;25748;46.670;14.272;2023-02-26T15:36:00;2.50;50.20
38333;DHT22;25748;46.670;14.272;2023-02-26T15:38:26;2.50;50.40
38333;DHT22;25748;46.670;14.272;2023-02-26T15:40:53;2.40;50.60
38333;DHT22;25748;46.670;14.272;2023-02-26T15:43:27;2.40;50.50
38333;DHT22;25748;46.670;14.272;2023-02-26T15:45:55;2.40;50.50
38333;DHT22;25748;46.670;14.272;2023-02-26T15:48:34;2.40;50.50
38333;DHT22;25748;46.670;14.272;2023-02-26T15:51:08;2.30;50.60
38333;DHT22;25748;46.670;14.272;2023-02-26T15:53:47;2.30;50.50
38333;DHT22;25748;46.670;14.272;2023-02-26T15:56:23;2.30;50.50
38333;DHT22;25748;46.670;14.272;2023-02-26T15:58:58;2.30;50.40
38333;DHT22;25748;46.670;14.272;2023-02-26T16:01:27;2.30;50.50
38333;DHT22;25748;46.670;14.272;2023-02-26T16:03:56;2.30;50.50
38333;DHT22;25748;46.670;14.272;2023-02-26T16:06:36;2.30;50.70
38333;DHT22;25748;46.670;14.272;2023-02-26T16:09:05;2.30;50.60
38333;DHT22;25748;46.670;14.272;2023-02-26T16:11:37;2.20;50.60
38333;DHT22;25748;46.670;14.272;2023-02-26T16:14:05;2.20;50.90
38333;DHT22;25748;46.670;14.272;2023-02-26T16:16:39;2.20;51.10
38333;DHT22;25748;46.670;14.272;2023-02-26T16:19:05;2.10;51.30
38333;DHT22;25748;46.670;14.272;2023-02-26T16:21:34;2.10;51.50
38333;DHT22;25748;46.670;14.272;2023-02-26T16:24:04;2.10;51.90
38333;DHT22;25748;46.670;14.272;2023-02-26T16:26:40;2.00;52.10
38333;DHT22;25748;46.670;14.272;2023-02-26T16:29:17;2.00;52.30
38333;DHT22;25748;46.670;14.272;2023-02-26T16:31:46;2.00;52.60
38333;DHT22;25748;46.670;14.272;2023-02-26T16:36:55;1.80;53.00
38333;DHT22;25748;46.670;14.272;2023-02-26T16:39:24;1.80;53.10
38333;DHT22;25748;46.670;14.272;2023-02-26T16:42:13;1.80;53.30
38333;DHT22;25748;46.670;14.272;2023-02-26T16:44:56;1.70;53.80
38333;DHT22;25748;46.670;14.272;2023-02-26T16:47:23;1.70;53.90
38333;DHT22;25748;46.670;14.272;2023-02-26T16:49:53;1.60;54.10
38333;DHT22;25748;46.670;14.272;2023-02-26T16:52:22;1.60;54.20
38333;DHT22;25748;46.670;14.272;2023-02-26T16:55:16;1.60;54.10
38333;DHT22;25748;46.670;14.272;2023-02-26T16:57:45;1.60;54.20
38333;DHT22;25748;46.670;14.272;2023-02-26T17:00:16;1.50;54.30
38333;DHT22;25748;46.670;14.272;2023-02-26T17:02:48;1.40;54.50
38333;DHT22;25748;46.670;14.272;2023-02-26T17:05:23;1.40;54.90
38333;DHT22;25748;46.670;14.272;2023-02-26T17:08:04;1.40;54.40
38333;DHT22;25748;46.670;14.272;2023-02-26T17:10:49;1.30;54.30
38333;DHT22;25748;46.670;14.272;2023-02-26T17:15:45;1.30;54.00
38333;DHT22;25748;46.670;14.272;2023-02-26T17:18:12;1.30;54.00
38333;DHT22;25748;46.670;14.272;2023-02-26T17:20:38;1.20;53.70
38333;DHT22;25748;46.670;14.272;2023-02-26T17:23:06;1.20;53.70
38333;DHT22;25748;46.670;14.272;2023-02-26T17:25:39;1.20;53.70
38333;DHT22;25748;46.670;14.272;2023-02-26T17:28:06;1.20;53.80
38333;DHT22;25748;46.670;14.272;2023-02-26T17:30:32;1.20;53.80
38333;DHT22;25748;46.670;14.272;2023-02-26T17:33:00;1.10;53.90
38333;DHT22;25748;46.670;14.272;2023-02-26T17:35:26;1.20;53.90
38333;DHT22;25748;46.670;14.272;2023-02-26T17:37:53;1.10;54.00
38333;DHT22;25748;46.670;14.272;2023-02-26T17:42:50;1.10;54.20
38333;DHT22;25748;46.670;14.272;2023-02-26T17:45:17;1.10;54.30
38333;DHT22;25748;46.670;14.272;2023-02-26T17:47:44;1.10;54.30
38333;DHT22;25748;46.670;14.272;2023-02-26T17:52:56;1.10;54.50
38333;DHT22;25748;46.670;14.272;2023-02-26T17:55:23;1.10;54.70
38333;DHT22;25748;46.670;14.272;2023-02-26T17:57:49;1.10;54.80
38333;DHT22;25748;46.670;14.272;2023-02-26T18:00:15;1.00;55.00
38333;DHT22;25748;46.670;14.272;2023-02-26T18:02:41;1.00;55.40
38333;DHT22;25748;46.670;14.272;2023-02-26T18:05:07;1.00;55.50
38333;DHT22;25748;46.670;14.272;2023-02-26T18:07:33;1.00;55.60
38333;DHT22;25748;46.670;14.272;2023-02-26T18:09:59;1.00;55.60
38333;DHT22;25748;46.670;14.272;2023-02-26T18:12:25;1.00;55.60
38333;DHT22;25748;46.670;14.272;2023-02-26T18:14:51;1.00;55.60
38333;DHT22;25748;46.670;14.272;2023-02-26T18:17:25;1.00;55.70
38333;DHT22;25748;46.670;14.272;2023-02-26T18:19:51;0.90;55.80
38333;DHT22;25748;46.670;14.272;2023-02-26T18:22:19;1.00;55.90
38333;DHT22;25748;46.670;14.272;2023-02-26T18:24:48;1.00;56.00
38333;DHT22;25748;46.670;14.272;2023-02-26T18:27:16;0.90;56.00
38333;DHT22;25748;46.670;14.272;2023-02-26T18:29:42;0.90;56.10
38333;DHT22;25748;46.670;14.272;2023-02-26T18:32:28;0.90;56.20
38333;DHT22;25748;46.670;14.272;2023-02-26T18:34:54;0.90;56.20
38333;DHT22;25748;46.670;14.272;2023-02-26T18:37:23;0.90;56.10
38333;DHT22;25748;46.670;14.272;2023-02-26T18:39:49;0.90;56.10
38333;DHT22;25748;46.670;14.272;2023-02-26T18:42:24;0.90;56.00
38333;DHT22;25748;46.670;14.272;2023-02-26T18:44:50;0.80;55.90
38333;DHT22;25748;46.670;14.272;2023-02-26T18:47:18;0.90;56.10
38333;DHT22;25748;46.670;14.272;2023-02-26T18:49:45;0.80;56.10